Time;durP1;ratioP1;P1;durP2;ratioP2;P2;SDS_P1;SDS_P2;PMS_P1;PMS_P2;Temp;Humidity;BMP_temperature;BMP_pressure;BME280_temperature;BME280_humidity;BME280_pressure;Samples;Min_cycle;Max_cycle;Signal;HPM_P1;HPM_P2
2022/03/29 00:02:01;;;;;;;26.52;23.80;;;6.80;99.90;;;;;;5048035;28;20049;-74
2022/03/29 00:04:27;;;;;;;27.40;24.60;;;6.90;99.90;;;;;;5047505;28;20045;-72
2022/03/29 00:06:54;;;;;;;28.52;25.52;;;6.80;99.90;;;;;;5052221;28;20040;-71
2022/03/29 00:09:20;;;;;;;28.65;25.55;;;6.80;99.90;;;;;;5057590;28;20101;-71
2022/03/29 00:11:46;;;;;;;29.77;26.65;;;6.70;99.90;;;;;;5100015;28;20083;-71
2022/03/29 00:14:13;;;;;;;29.75;26.63;;;6.80;99.90;;;;;;5061907;28;20073;-72
2022/03/29 00:16:40;;;;;;;30.85;27.25;;;6.80;99.90;;;;;;5067742;28;20052;-72
2022/03/29 00:19:06;;;;;;;31.05;28.00;;;6.80;99.90;;;;;;5081554;28;20040;-71
2022/03/29 00:21:33;;;;;;;30.27;27.10;;;6.70;99.90;;;;;;5077598;28;20036;-71
2022/03/29 00:23:58;;;;;;;32.30;28.40;;;6.70;99.90;;;;;;5043487;28;20071;-72
2022/03/29 00:26:24;;;;;;;32.35;28.60;;;6.70;99.90;;;;;;5045488;28;20103;-71
2022/03/29 00:28:50;;;;;;;33.17;29.63;;;6.70;99.90;;;;;;5038983;28;20098;-71
2022/03/29 00:31:19;;;;;;;33.20;29.77;;;6.70;99.90;;;;;;5063387;28;20052;-72
2022/03/29 00:33:46;;;;;;;36.03;32.17;;;6.80;99.90;;;;;;5049208;28;20161;-72
2022/03/29 00:36:12;;;;;;;31.45;28.15;;;6.70;99.90;;;;;;5065415;28;20089;-71
2022/03/29 00:38:37;;;;;;;31.52;28.23;;;6.70;99.90;;;;;;5082724;28;20126;-71
2022/03/29 00:41:03;;;;;;;31.02;27.38;;;6.70;99.90;;;;;;5081457;28;20134;-71
2022/03/29 00:43:29;;;;;;;30.95;27.67;;;6.70;99.90;;;;;;5065064;28;20362;-71
2022/03/29 00:45:56;;;;;;;31.45;28.08;;;6.70;99.90;;;;;;5082359;28;20063;-71
2022/03/29 00:48:21;;;;;;;29.70;26.67;;;6.70;99.90;;;;;;5082418;28;20082;-71
2022/03/29 00:50:48;;;;;;;34.17;29.55;;;6.70;99.90;;;;;;5081955;28;20134;-71
2022/03/29 00:53:16;;;;;;;30.95;27.70;;;6.70;99.90;;;;;;5048547;28;20039;-71
2022/03/29 00:55:43;;;;;;;29.38;26.27;;;6.70;99.90;;;;;;5064864;28;20043;-71
2022/03/29 00:58:11;;;;;;;30.30;27.13;;;6.70;99.90;;;;;;5065176;28;20047;-71
2022/03/29 01:00:38;;;;;;;28.38;25.38;;;6.80;99.90;;;;;;5065638;28;20470;-71
2022/03/29 01:03:04;;;;;;;29.50;26.40;;;6.70;99.90;;;;;;5081774;28;20123;-71
2022/03/29 01:05:31;;;;;;;29.38;26.33;;;6.70;99.90;;;;;;5082088;28;20048;-71
2022/03/29 01:07:57;;;;;;;30.48;27.00;;;6.70;99.90;;;;;;5064764;28;20067;-71
2022/03/29 01:10:24;;;;;;;29.27;26.27;;;6.70;99.90;;;;;;5081134;28;20073;-71
2022/03/29 01:12:51;;;;;;;29.15;26.13;;;6.70;99.90;;;;;;5077949;28;20036;-71
2022/03/29 01:15:19;;;;;;;30.60;26.42;;;6.60;99.90;;;;;;5066075;28;20044;-72
2022/03/29 01:17:46;;;;;;;30.75;27.45;;;6.60;99.90;;;;;;5082532;28;20051;-72
2022/03/29 01:20:19;;;;;;;30.33;26.02;;;6.60;99.90;;;;;;5066105;28;20085;-72
2022/03/29 01:22:47;;;;;;;28.60;25.17;;;6.70;99.90;;;;;;5082116;28;20040;-71
2022/03/29 01:25:18;;;;;;;28.38;25.33;;;6.70;99.90;;;;;;5065890;28;20039;-72
2022/03/29 01:27:46;;;;;;;32.60;28.52;;;6.60;99.90;;;;;;5068257;28;20048;-72
2022/03/29 01:30:13;;;;;;;29.58;26.38;;;6.70;99.90;;;;;;5085695;28;20055;-72
2022/03/29 01:32:43;;;;;;;30.48;25.85;;;6.70;99.90;;;;;;5085900;28;20483;-72
2022/03/29 01:35:09;;;;;;;32.15;28.02;;;6.60;99.90;;;;;;5085235;28;20077;-72
2022/03/29 01:37:35;;;;;;;31.67;27.17;;;6.60;99.90;;;;;;5079291;28;20047;-71
2022/03/29 01:40:19;;;;;;;34.42;29.27;;;6.60;99.90;;;;;;5068261;28;20062;-73
2022/03/29 01:42:53;;;;;;;34.92;30.98;;;6.60;99.90;;;;;;5100106;28;20126;-70
2022/03/29 01:45:23;;;;;;;35.65;30.85;;;6.60;99.90;;;;;;5084108;28;20043;-70
2022/03/29 01:47:49;;;;;;;40.30;30.63;;;6.70;99.90;;;;;;5099650;28;20071;-71
2022/03/29 01:50:14;;;;;;;36.90;30.58;;;6.70;99.90;;;;;;5082769;28;20480;-71
2022/03/29 01:52:45;;;;;;;34.33;30.63;;;6.60;99.90;;;;;;5068864;28;20035;-71
2022/03/29 01:55:16;;;;;;;38.72;31.77;;;6.60;99.90;;;;;;5085505;28;20043;-70
2022/03/29 01:57:42;;;;;;;35.97;30.20;;;6.60;99.90;;;;;;5085718;28;20116;-71
2022/03/29 02:02:55;;;;;;;31.73;28.35;;;6.60;99.90;;;;;;5098736;28;20142;-73
2022/03/29 02:05:21;;;;;;;33.75;28.90;;;6.60;99.90;;;;;;5097236;28;20371;-71
2022/03/29 02:07:48;;;;;;;34.67;29.13;;;6.60;99.90;;;;;;5068347;28;20084;-71
2022/03/29 02:10:18;;;;;;;35.17;29.88;;;6.60;99.90;;;;;;5069032;28;20505;-71
2022/03/29 02:12:44;;;;;;;34.33;29.48;;;6.60;99.90;;;;;;5083900;28;20490;-70
2022/03/29 02:15:10;;;;;;;35.50;30.58;;;6.60;99.90;;;;;;5069389;28;20118;-71
2022/03/29 02:17:36;;;;;;;35.72;31.75;;;6.60;99.90;;;;;;5065123;28;20120;-70
2022/03/29 02:20:03;;;;;;;38.20;31.73;;;6.70;99.90;;;;;;5086568;28;20131;-70
2022/03/29 02:22:29;;;;;;;33.70;29.15;;;6.70;99.90;;;;;;5103603;28;20051;-71
2022/03/29 02:24:54;;;;;;;34.67;30.65;;;6.70;99.90;;;;;;5069675;28;20043;-71
2022/03/29 02:27:20;;;;;;;33.70;29.63;;;6.70;99.90;;;;;;5103710;28;20065;-71
2022/03/29 02:29:46;;;;;;;36.35;31.20;;;6.70;99.90;;;;;;5102299;28;20557;-71
2022/03/29 02:32:12;;;;;;;34.30;28.23;;;6.70;99.90;;;;;;5053131;28;20040;-71
2022/03/29 02:34:38;;;;;;;34.00;29.23;;;6.70;99.90;;;;;;5053186;28;20568;-72
2022/03/29 02:37:04;;;;;;;36.42;31.42;;;6.70;99.90;;;;;;5083938;28;20057;-71
2022/03/29 02:39:29;;;;;;;36.20;30.15;;;6.70;99.90;;;;;;5098845;28;20138;-73
2022/03/29 02:41:55;;;;;;;37.90;31.60;;;6.70;99.90;;;;;;5085516;28;20308;-73
2022/03/29 02:44:21;;;;;;;37.95;31.95;;;6.70;99.90;;;;;;5069399;28;20043;-73
2022/03/29 02:46:47;;;;;;;36.33;30.77;;;6.70;99.90;;;;;;5084602;28;20043;-73
2022/03/29 02:49:13;;;;;;;37.15;30.98;;;6.70;99.90;;;;;;5067022;28;20047;-73
2022/03/29 02:51:39;;;;;;;36.42;31.27;;;6.70;99.90;;;;;;5069448;28;20043;-73
2022/03/29 02:54:05;;;;;;;37.42;33.47;;;6.70;99.90;;;;;;5073219;28;20505;-73
2022/03/29 02:56:31;;;;;;;38.45;32.28;;;6.70;99.90;;;;;;5073618;28;20063;-73
2022/03/29 02:58:57;;;;;;;37.38;31.70;;;6.70;99.90;;;;;;5056584;28;20047;-75
2022/03/29 03:01:22;;;;;;;36.40;31.85;;;6.70;99.90;;;;;;5073504;28;20491;-73
2022/03/29 03:03:48;;;;;;;38.88;33.42;;;6.80;99.90;;;;;;5055981;28;20203;-74
2022/03/29 03:06:14;;;;;;;40.13;33.78;;;6.70;99.90;;;;;;5073487;28;20494;-74
2022/03/29 03:08:40;;;;;;;37.35;32.95;;;6.70;99.90;;;;;;5073304;28;20494;-74
2022/03/29 03:11:07;;;;;;;37.58;32.50;;;6.70;99.90;;;;;;5089331;28;20518;-74
2022/03/29 03:13:33;;;;;;;41.90;34.70;;;6.80;99.90;;;;;;5071287;28;20047;-74
2022/03/29 03:15:58;;;;;;;39.20;32.65;;;6.70;99.90;;;;;;5072768;28;20055;-72
2022/03/29 03:18:24;;;;;;;38.30;33.47;;;6.80;99.90;;;;;;5056150;28;20360;-72
2022/03/29 03:20:50;;;;;;;37.80;33.05;;;6.80;99.90;;;;;;5071938;28;20086;-72
2022/03/29 03:23:16;;;;;;;41.85;34.58;;;6.70;99.90;;;;;;5072705;28;20416;-72
2022/03/29 03:25:42;;;;;;;36.55;32.67;;;6.70;99.90;;;;;;5088278;28;20039;-72
2022/03/29 03:28:08;;;;;;;37.70;33.08;;;6.70;99.90;;;;;;5105850;27;20494;-70
2022/03/29 03:30:34;;;;;;;37.30;33.20;;;6.70;99.90;;;;;;5088571;28;20059;-70
2022/03/29 03:32:59;;;;;;;37.22;33.22;;;6.70;99.90;;;;;;5088781;28;20051;-70
2022/03/29 03:35:25;;;;;;;39.92;34.47;;;6.70;99.90;;;;;;5072581;28;20039;-70
2022/03/29 03:37:51;;;;;;;42.25;35.15;;;6.80;99.90;;;;;;5071833;28;20056;-71
2022/03/29 03:40:17;;;;;;;43.42;35.10;;;6.80;99.90;;;;;;5072440;28;20055;-71
2022/03/29 03:42:43;;;;;;;42.72;36.25;;;6.70;99.90;;;;;;5070798;28;20040;-71
2022/03/29 03:45:09;;;;;;;42.70;34.45;;;6.70;99.90;;;;;;5072247;28;20058;-71
2022/03/29 03:47:36;;;;;;;39.83;33.80;;;6.80;99.90;;;;;;5070212;28;20087;-72
2022/03/29 03:50:02;;;;;;;43.22;34.95;;;6.70;99.90;;;;;;5071806;28;20046;-72
2022/03/29 03:52:28;;;;;;;42.47;35.20;;;6.70;99.90;;;;;;5054922;28;20040;-71
2022/03/29 03:54:56;;;;;;;40.33;33.83;;;6.80;99.90;;;;;;5071940;28;20103;-71
2022/03/29 03:57:22;;;;;;;41.78;34.90;;;6.70;99.90;;;;;;5072724;28;20070;-71
2022/03/29 03:59:49;;;;;;;42.55;35.75;;;6.70;99.90;;;;;;5122775;27;20055;-71
2022/03/29 04:02:15;;;;;;;39.92;34.97;;;6.70;99.90;;;;;;5086910;28;20118;-71
2022/03/29 04:04:41;;;;;;;36.35;32.35;;;6.70;99.90;;;;;;5105166;28;20134;-72
2022/03/29 04:07:07;;;;;;;40.75;34.67;;;6.70;99.90;;;;;;5104876;28;20052;-71
2022/03/29 04:09:38;;;;;;;40.83;33.80;;;6.70;99.90;;;;;;5122669;27;20375;-71
2022/03/29 04:12:04;;;;;;;;;;;6.80;99.90;;;;;;5103515;28;20058;-71
2022/03/29 04:14:30;;;;;;;38.15;33.72;;;6.70;99.90;;;;;;5122608;27;19924;-71
2022/03/29 04:16:56;;;;;;;41.42;33.00;;;6.70;99.90;;;;;;5071320;28;20436;-71
2022/03/29 04:19:22;;;;;;;39.60;32.35;;;6.70;99.90;;;;;;5071564;28;20042;-71
2022/03/29 04:21:48;;;;;;;36.95;31.58;;;6.70;99.90;;;;;;5070901;28;20043;-71
2022/03/29 04:24:14;;;;;;;38.80;32.40;;;6.80;99.90;;;;;;5071758;28;20131;-71
2022/03/29 04:26:40;;;;;;;46.65;33.13;;;6.70;99.90;;;;;;5071665;28;20052;-71
2022/03/29 04:29:06;;;;;;;40.90;33.28;;;6.70;99.90;;;;;;5083067;28;20098;-71
2022/03/29 04:31:32;;;;;;;41.10;33.40;;;6.70;99.90;;;;;;5067551;28;20537;-71
2022/03/29 04:34:01;;;;;;;40.67;32.58;;;6.70;99.90;;;;;;5067524;28;20134;-71
2022/03/29 04:36:28;;;;;;;43.13;34.40;;;6.70;99.90;;;;;;5085517;28;20051;-70
2022/03/29 04:38:54;;;;;;;39.30;32.67;;;6.70;99.90;;;;;;5068252;28;20040;-71
2022/03/29 04:41:21;;;;;;;41.03;33.90;;;6.70;99.90;;;;;;5069214;28;20055;-71
2022/03/29 04:43:47;;;;;;;42.47;33.55;;;6.70;99.90;;;;;;5067219;28;20525;-71
2022/03/29 04:46:12;;;;;;;39.70;33.38;;;6.70;99.90;;;;;;5067246;28;20048;-74
2022/03/29 04:48:38;;;;;;;40.17;33.03;;;6.70;99.90;;;;;;5084695;28;20051;-74
2022/03/29 04:51:04;;;;;;;39.45;34.05;;;6.70;99.90;;;;;;5067050;28;20553;-74
2022/03/29 04:53:30;;;;;;;43.47;33.72;;;6.70;99.90;;;;;;5084414;28;20044;-73
2022/03/29 04:55:56;;;;;;;36.42;30.92;;;6.70;99.90;;;;;;5083646;28;20131;-72
2022/03/29 04:58:23;;;;;;;36.97;30.80;;;6.70;99.90;;;;;;5050901;28;20517;-73
2022/03/29 05:00:52;;;;;;;42.67;32.40;;;6.70;99.90;;;;;;5082412;28;20044;-73
2022/03/29 05:03:18;;;;;;;45.33;34.75;;;6.70;99.90;;;;;;5084385;28;20052;-71
2022/03/29 05:05:44;;;;;;;39.97;33.05;;;6.70;99.90;;;;;;5083885;28;20044;-71
2022/03/29 05:08:10;;;;;;;42.90;32.63;;;6.70;99.90;;;;;;5083463;28;20066;-71
2022/03/29 05:10:36;;;;;;;37.65;30.90;;;6.80;99.90;;;;;;5050892;28;20131;-71
2022/03/29 05:13:02;;;;;;;42.97;34.00;;;6.80;99.90;;;;;;5048597;28;20079;-71
2022/03/29 05:15:28;;;;;;;42.58;35.67;;;6.80;99.90;;;;;;5049706;28;20036;-72
2022/03/29 05:17:53;;;;;;;39.17;33.13;;;6.70;99.90;;;;;;5083001;28;20537;-72
2022/03/29 05:20:19;;;;;;;41.33;33.28;;;6.80;99.90;;;;;;5084084;28;20047;-71
2022/03/29 05:22:50;;;;;;;41.20;32.42;;;6.70;99.90;;;;;;5050217;28;20097;-70
2022/03/29 05:25:17;;;;;;;40.05;32.65;;;6.70;99.90;;;;;;5067362;28;20070;-70
2022/03/29 05:27:44;;;;;;;40.58;32.80;;;6.70;99.90;;;;;;5086293;28;20048;-70
2022/03/29 05:30:11;;;;;;;42.65;31.15;;;6.70;99.90;;;;;;5120696;27;20055;-70
2022/03/29 05:32:37;;;;;;;42.50;33.75;;;6.70;99.90;;;;;;5086939;28;20035;-70
2022/03/29 05:35:04;;;;;;;41.33;32.05;;;6.70;99.90;;;;;;5120066;27;20399;-70
2022/03/29 05:37:30;;;;;;;39.28;32.33;;;6.80;99.90;;;;;;5103720;28;20049;-70
2022/03/29 05:39:58;;;;;;;39.33;32.08;;;6.70;99.90;;;;;;5069320;28;20043;-70
2022/03/29 05:42:24;;;;;;;41.13;32.90;;;6.70;99.90;;;;;;5069010;28;20044;-70
2022/03/29 05:44:50;;;;;;;44.15;31.95;;;6.70;99.90;;;;;;5086647;28;20059;-71
2022/03/29 05:50:00;;;;;;;39.50;31.95;;;6.70;99.90;;;;;;5071827;28;20550;-71
2022/03/29 05:52:26;;;;;;;40.05;31.60;;;6.70;99.90;;;;;;5053364;28;20237;-70
2022/03/29 05:54:52;;;;;;;39.78;31.48;;;6.70;99.90;;;;;;5069783;28;20424;-71
2022/03/29 05:57:19;;;;;;;38.97;31.20;;;6.80;99.90;;;;;;5069889;28;20126;-70
2022/03/29 05:59:45;;;;;;;41.33;32.38;;;6.70;99.90;;;;;;5086725;28;20048;-70
2022/03/29 06:02:12;;;;;;;41.05;32.45;;;6.70;99.90;;;;;;5086298;28;20082;-70
2022/03/29 06:04:39;;;;;;;40.13;32.45;;;6.70;99.90;;;;;;5086746;28;20047;-70
2022/03/29 06:07:06;;;;;;;42.90;32.53;;;6.80;99.90;;;;;;5069537;28;20051;-73
2022/03/29 06:09:35;;;;;;;41.60;32.25;;;6.80;99.90;;;;;;5086665;28;20039;-70
2022/03/29 06:12:02;;;;;;;42.10;31.73;;;6.80;99.90;;;;;;5067652;28;20040;-71
2022/03/29 06:14:28;;;;;;;41.15;32.60;;;6.80;99.90;;;;;;5106864;28;20054;-71
2022/03/29 06:16:55;;;;;;;39.38;32.05;;;6.80;99.90;;;;;;5067162;28;20043;-70
2022/03/29 06:19:21;;;;;;;41.75;32.88;;;6.80;99.90;;;;;;5069747;28;20043;-70
2022/03/29 06:21:47;;;;;;;40.85;31.15;;;6.80;99.90;;;;;;5068974;28;20055;-71
2022/03/29 06:24:13;;;;;;;43.05;32.33;;;6.80;99.90;;;;;;5085726;28;20062;-70
2022/03/29 06:26:39;;;;;;;42.00;32.20;;;6.80;99.90;;;;;;5078836;28;20573;-70
2022/03/29 06:29:06;;;;;;;42.83;31.67;;;6.80;99.90;;;;;;5062422;28;20052;-71
2022/03/29 06:31:33;;;;;;;40.38;31.77;;;6.80;99.90;;;;;;5068832;28;20585;-71
2022/03/29 06:33:59;;;;;;;41.08;32.65;;;6.80;99.90;;;;;;5085157;28;20096;-71
2022/03/29 06:36:25;;;;;;;48.65;35.17;;;6.90;99.90;;;;;;5085680;28;20553;-71
2022/03/29 06:38:51;;;;;;;38.55;30.77;;;6.90;99.90;;;;;;5085406;28;20205;-71
2022/03/29 06:41:17;;;;;;;41.22;32.75;;;6.90;99.90;;;;;;5085842;28;20039;-70
2022/03/29 06:43:43;;;;;;;42.22;31.35;;;7.00;99.90;;;;;;5084728;28;20040;-70
2022/03/29 06:46:10;;;;;;;41.45;32.97;;;7.00;99.90;;;;;;5051656;28;20601;-71
2022/03/29 06:48:37;;;;;;;42.50;32.90;;;7.00;99.90;;;;;;5068398;28;20086;-71
2022/03/29 06:51:03;;;;;;;44.13;32.60;;;7.00;99.90;;;;;;5068035;28;20044;-71
2022/03/29 06:53:29;;;;;;;45.15;34.00;;;7.10;99.90;;;;;;5068559;28;20502;-70
2022/03/29 06:55:56;;;;;;;41.85;33.42;;;7.00;99.90;;;;;;5084454;28;20079;-71
2022/03/29 06:58:21;;;;;;;48.22;34.20;;;7.10;99.90;;;;;;5052064;28;20051;-70
2022/03/29 07:00:50;;;;;;;43.67;32.00;;;7.10;99.90;;;;;;5085397;28;20044;-70
2022/03/29 07:03:16;;;;;;;39.65;30.83;;;7.10;99.90;;;;;;5068114;28;20188;-70
2022/03/29 07:05:42;;;;;;;38.83;31.95;;;7.10;99.90;;;;;;5085160;28;20126;-70
2022/03/29 07:08:12;;;;;;;42.25;32.10;;;7.20;99.90;;;;;;5084403;28;20047;-70
2022/03/29 07:13:23;;;;;;;44.10;32.42;;;7.20;99.90;;;;;;5083182;28;20121;-70
2022/03/29 07:15:49;;;;;;;41.83;32.40;;;7.30;99.90;;;;;;5068510;28;20051;-73
2022/03/29 07:18:15;;;;;;;38.97;31.08;;;7.30;99.90;;;;;;5066244;28;20067;-73
2022/03/29 07:20:41;;;;;;;40.40;30.98;;;7.30;99.90;;;;;;5085083;28;20438;-73
2022/03/29 07:23:07;;;;;;;45.17;32.63;;;7.40;99.90;;;;;;5083793;28;20178;-70
2022/03/29 07:25:34;;;;;;;42.15;32.78;;;7.40;99.90;;;;;;5066977;28;20319;-71
2022/03/29 07:28:01;;;;;;;45.42;32.42;;;7.50;99.90;;;;;;5084886;28;20040;-71
2022/03/29 07:30:27;;;;;;;38.55;31.80;;;7.50;99.90;;;;;;5071159;28;20117;-71
2022/03/29 07:32:57;;;;;;;46.03;32.28;;;7.60;99.90;;;;;;5048170;28;20040;-71
2022/03/29 07:35:24;;;;;;;;;;;7.60;99.90;;;;;;5049455;28;20212;-71
2022/03/29 07:37:51;;;;;;;41.17;32.22;;;7.60;99.90;;;;;;5045605;28;19936;-71
2022/03/29 07:40:21;;;;;;;39.78;30.25;;;7.60;99.90;;;;;;5062538;28;20049;-71
2022/03/29 07:42:49;;;;;;;39.97;31.40;;;7.60;99.90;;;;;;5046541;28;20048;-71
2022/03/29 07:45:16;;;;;;;39.88;31.27;;;7.70;99.90;;;;;;5064204;28;20044;-71
2022/03/29 07:47:42;;;;;;;41.35;31.30;;;7.70;99.90;;;;;;5055135;28;20044;-71
2022/03/29 07:50:11;;;;;;;37.97;28.80;;;7.70;99.90;;;;;;5066138;28;20397;-71
2022/03/29 07:52:39;;;;;;;41.55;30.63;;;7.70;99.90;;;;;;5047754;28;20044;-71
2022/03/29 07:55:06;;;;;;;39.28;30.77;;;7.70;99.90;;;;;;5064422;28;20063;-71
2022/03/29 07:57:33;;;;;;;43.00;31.20;;;7.70;99.90;;;;;;5047939;28;20052;-70
2022/03/29 08:00:00;;;;;;;35.20;28.85;;;7.70;99.90;;;;;;5071581;28;20503;-70
2022/03/29 08:02:29;;;;;;;37.75;28.85;;;7.70;99.90;;;;;;5047430;28;20086;-71
2022/03/29 08:04:58;;;;;;;41.83;30.63;;;7.70;99.90;;;;;;5053258;28;20536;-70
2022/03/29 08:07:24;;;;;;;38.63;29.25;;;7.80;99.90;;;;;;5084115;28;20032;-70
2022/03/29 08:09:50;;;;;;;40.00;30.15;;;7.80;99.90;;;;;;5066904;28;20066;-71
2022/03/29 08:12:15;;;;;;;41.13;29.13;;;7.80;99.90;;;;;;5034652;28;20033;-71
2022/03/29 08:14:41;;;;;;;34.65;28.25;;;7.90;99.90;;;;;;5046880;28;20078;-71
2022/03/29 08:17:08;;;;;;;40.33;29.70;;;7.90;99.90;;;;;;5062142;28;20040;-70
2022/03/29 08:19:33;;;;;;;42.55;29.70;;;8.00;99.90;;;;;;5046628;28;20503;-71
2022/03/29 08:22:03;;;;;;;37.95;27.73;;;8.10;99.90;;;;;;5060443;28;20049;-71
2022/03/29 08:24:28;;;;;;;35.35;27.08;;;8.10;99.90;;;;;;5041657;28;20032;-71
2022/03/29 08:26:55;;;;;;;39.55;27.23;;;8.10;99.90;;;;;;5066515;28;20081;-71
2022/03/29 08:29:21;;;;;;;37.47;26.98;;;8.10;99.90;;;;;;5065158;28;20484;-71
2022/03/29 08:31:49;;;;;;;40.90;26.70;;;8.20;99.90;;;;;;5083327;28;20123;-71
2022/03/29 08:34:16;;;;;;;35.60;25.30;;;8.20;99.90;;;;;;5065275;28;20040;-71
2022/03/29 08:36:43;;;;;;;38.80;26.52;;;8.20;99.90;;;;;;5083974;28;20465;-73
2022/03/29 08:39:10;;;;;;;35.60;24.63;;;8.10;99.90;;;;;;5083019;28;20036;-70
2022/03/29 08:41:38;;;;;;;36.72;25.83;;;8.10;99.90;;;;;;5083387;28;20429;-70
2022/03/29 08:44:06;;;;;;;41.85;25.52;;;8.10;99.90;;;;;;5081516;28;20050;-71
2022/03/29 08:46:38;;;;;;;40.88;25.35;;;8.20;99.90;;;;;;5050170;28;20055;-71
2022/03/29 08:49:06;;;;;;;43.92;26.95;;;8.20;99.90;;;;;;5082911;28;20423;-70
2022/03/29 08:51:31;;;;;;;36.33;25.60;;;8.20;99.90;;;;;;5065853;28;20044;-70
2022/03/29 08:53:57;;;;;;;41.65;27.65;;;8.30;99.90;;;;;;5049338;28;20102;-71
2022/03/29 08:56:24;;;;;;;42.08;27.33;;;8.30;99.90;;;;;;5065930;28;20135;-70
2022/03/29 08:58:50;;;;;;;38.35;27.90;;;8.30;99.90;;;;;;5083493;28;20040;-70
2022/03/29 09:01:19;;;;;;;33.38;26.02;;;8.30;99.90;;;;;;5063619;28;20033;-70
2022/03/29 09:03:47;;;;;;;43.95;30.13;;;8.40;99.90;;;;;;5066095;28;20462;-70
2022/03/29 09:06:13;;;;;;;37.25;28.10;;;8.40;99.90;;;;;;5065254;28;20492;-72
2022/03/29 09:08:43;;;;;;;40.90;28.60;;;8.50;99.90;;;;;;5081991;28;20146;-70
2022/03/29 09:11:09;;;;;;;41.40;29.23;;;8.60;99.90;;;;;;5080867;28;20082;-70
2022/03/29 09:13:34;;;;;;;44.67;29.95;;;8.60;99.90;;;;;;5063257;28;20044;-71
2022/03/29 09:16:01;;;;;;;43.30;28.52;;;8.70;99.90;;;;;;5064734;28;20059;-71
2022/03/29 09:18:28;;;;;;;43.67;27.48;;;8.70;99.90;;;;;;5080853;28;20823;-71
2022/03/29 09:21:09;;;;;;;41.55;28.35;;;8.70;99.90;;;;;;5063881;28;20526;-71
2022/03/29 09:23:35;;;;;;;40.22;28.55;;;8.80;99.90;;;;;;5065499;28;20368;-71
2022/03/29 09:26:02;;;;;;;40.55;27.08;;;8.90;99.90;;;;;;5080990;28;20044;-70
2022/03/29 09:28:36;;;;;;;35.58;27.10;;;9.00;99.90;;;;;;5069461;28;20070;-70
2022/03/29 09:31:22;;;;;;;33.92;27.77;;;9.10;99.90;;;;;;5083902;28;20432;-71
2022/03/29 09:33:48;;;;;;;42.75;27.20;;;9.30;99.90;;;;;;5084996;28;20306;-71
2022/03/29 09:36:20;;;;;;;37.65;27.05;;;9.40;99.90;;;;;;5084062;28;20166;-71
2022/03/29 09:38:47;;;;;;;36.78;26.42;;;9.50;99.90;;;;;;5084728;28;20305;-71
2022/03/29 09:41:29;;;;;;;34.72;27.13;;;9.40;99.90;;;;;;5065231;28;20036;-72
2022/03/29 09:44:08;;;;;;;37.83;26.73;;;9.50;99.90;;;;;;5084345;28;20089;-71
2022/03/29 09:47:00;;;;;;;37.97;26.45;;;9.50;99.90;;;;;;5067123;28;20139;-72
2022/03/29 09:49:27;;;;;;;36.85;26.02;;;9.40;99.90;;;;;;5083504;28;20047;-71
2022/03/29 09:52:23;;;;;;;38.00;25.77;;;9.40;99.90;;;;;;5084574;28;20044;-71
2022/03/29 09:55:13;;;;;;;36.25;25.60;;;9.50;99.90;;;;;;5084251;28;20439;-71
2022/03/29 09:57:43;;;;;;;37.92;26.63;;;9.50;99.90;;;;;;5084177;28;20051;-71
2022/03/29 10:00:12;;;;;;;32.72;25.52;;;9.50;99.90;;;;;;5066990;28;20100;-71
2022/03/29 10:02:44;;;;;;;32.92;26.95;;;9.50;99.90;;;;;;5068467;28;20051;-71
2022/03/29 10:05:11;;;;;;;36.28;27.27;;;9.40;99.90;;;;;;5087778;28;20406;-71
2022/03/29 10:07:44;;;;;;;36.90;25.98;;;9.40;99.90;;;;;;5088176;28;20051;-71
2022/03/29 10:10:11;;;;;;;34.45;25.85;;;9.40;99.90;;;;;;5071046;28;20039;-71
2022/03/29 10:12:37;;;;;;;36.83;27.88;;;9.40;99.90;;;;;;5086674;28;20514;-71
2022/03/29 10:15:04;;;;;;;34.65;26.33;;;9.40;99.90;;;;;;5087675;28;20406;-71
2022/03/29 10:17:31;;;;;;;34.80;25.02;;;9.40;99.90;;;;;;5087032;28;20261;-71
2022/03/29 10:19:58;;;;;;;40.08;26.30;;;9.40;99.90;;;;;;5071268;28;20428;-71
2022/03/29 10:22:25;;;;;;;33.33;24.98;;;9.40;99.90;;;;;;5087579;28;20051;-71
2022/03/29 10:24:53;;;;;;;30.15;26.15;;;9.50;99.90;;;;;;5071309;28;20223;-71
2022/03/29 10:27:20;;;;;;;30.23;24.17;;;9.50;99.90;;;;;;5069198;28;20043;-71
2022/03/29 10:29:46;;;;;;;35.55;25.73;;;9.60;99.90;;;;;;5086332;28;20111;-71
2022/03/29 10:32:31;;;;;;;29.83;24.00;;;9.70;99.90;;;;;;5070865;28;20504;-71
2022/03/29 10:35:06;;;;;;;31.60;24.70;;;9.70;99.90;;;;;;5083905;28;20039;-71
2022/03/29 10:37:53;;;;;;;33.70;24.42;;;9.80;99.90;;;;;;5109233;27;20092;-70
2022/03/29 10:40:37;;;;;;;37.22;25.80;;;10.00;99.90;;;;;;5078499;28;20040;-71
2022/03/29 10:43:29;;;;;;;28.40;23.20;;;10.10;99.90;;;;;;5063373;28;20083;-71
2022/03/29 10:45:56;;;;;;;30.95;23.92;;;10.20;99.90;;;;;;5099615;28;20652;-71
2022/03/29 10:48:22;;;;;;;35.47;24.38;;;10.20;99.90;;;;;;5082036;28;20043;-71
2022/03/29 10:50:51;;;;;;;34.60;24.98;;;10.30;99.90;;;;;;5103618;28;20046;-71
2022/03/29 10:53:48;;;;;;;34.72;24.85;;;10.50;99.90;;;;;;5077580;28;20048;-71
2022/03/29 10:56:19;;;;;;;31.63;24.70;;;10.80;99.90;;;;;;5056058;28;20052;-71
2022/03/29 10:59:02;;;;;;;32.63;23.80;;;11.00;99.90;;;;;;5114440;27;20051;-72
2022/03/29 11:01:33;;;;;;;33.47;23.67;;;11.10;99.90;;;;;;5082347;28;20039;-75
2022/03/29 11:04:04;;;;;;;;;;;11.10;99.90;;;;;;5083286;28;20108;-75
2022/03/29 11:06:30;;;;;;;31.98;23.83;;;11.00;99.90;;;;;;5084074;28;19927;-76
2022/03/29 11:09:17;;;;;;;32.90;23.33;;;11.10;99.90;;;;;;5078840;28;20067;-75
2022/03/29 11:11:48;;;;;;;30.70;23.42;;;11.20;99.90;;;;;;5059161;28;20075;-76
2022/03/29 11:14:35;;;;;;;29.33;21.63;;;11.30;99.90;;;;;;5063393;28;20512;-75
2022/03/29 11:17:01;;;;;;;35.22;24.50;;;11.40;99.90;;;;;;5099915;28;20134;-76
2022/03/29 11:19:42;;;;;;;31.00;23.27;;;11.60;99.90;;;;;;5060009;28;20161;-76
2022/03/29 11:22:25;;;;;;;33.17;24.65;;;11.80;99.90;;;;;;5080715;28;20101;-76
2022/03/29 11:24:53;;;;;;;29.02;21.60;;;12.00;99.90;;;;;;5115622;27;20043;-76
2022/03/29 11:27:26;;;;;;;31.30;23.00;;;11.90;99.90;;;;;;5093441;28;20158;-76
2022/03/29 11:29:53;;;;;;;30.30;21.73;;;11.80;99.90;;;;;;5080010;28;20059;-76
2022/03/29 11:32:19;;;;;;;30.67;22.35;;;11.70;99.90;;;;;;5042139;28;20585;-76
2022/03/29 11:34:46;;;;;;;29.08;22.48;;;11.80;99.90;;;;;;5055545;28;20043;-75
2022/03/29 11:37:43;;;;;;;33.15;22.80;;;12.00;99.90;;;;;;5072601;28;20040;-76
2022/03/29 11:40:12;;;;;;;33.10;22.85;;;12.00;99.90;;;;;;5055004;28;20044;-75
2022/03/29 11:42:41;;;;;;;34.53;23.08;;;12.00;99.90;;;;;;5070338;28;20520;-76
2022/03/29 11:45:08;;;;;;;33.05;24.50;;;11.90;99.90;;;;;;5062494;28;20049;-74
2022/03/29 11:47:34;;;;;;;32.03;22.60;;;11.80;99.90;;;;;;5048270;28;20039;-74
2022/03/29 11:49:59;;;;;;;30.42;21.90;;;11.80;99.90;;;;;;5083999;28;20482;-73
2022/03/29 11:52:33;;;;;;;30.23;22.60;;;11.80;99.90;;;;;;5083742;28;20557;-74
2022/03/29 11:54:59;;;;;;;33.60;23.83;;;11.80;99.90;;;;;;5083859;28;20040;-74
2022/03/29 11:57:26;;;;;;;34.35;23.15;;;12.00;99.90;;;;;;5065924;28;20044;-74
2022/03/29 11:59:53;;;;;;;29.58;21.10;;;12.10;99.90;;;;;;5084213;28;20058;-74
2022/03/29 12:02:21;;;;;;;28.67;19.63;;;12.20;99.90;;;;;;5066109;28;20036;-74
2022/03/29 12:04:50;;;;;;;27.95;19.20;;;12.20;99.90;;;;;;5084310;28;20044;-74
2022/03/29 12:07:17;;;;;;;27.85;19.95;;;12.30;99.90;;;;;;5065613;28;20130;-75
2022/03/29 12:09:47;;;;;;;28.00;20.00;;;12.20;99.90;;;;;;5067270;28;20521;-74
2022/03/29 12:12:13;;;;;;;26.70;19.38;;;12.10;99.90;;;;;;5083384;28;20486;-74
2022/03/29 12:14:39;;;;;;;30.55;20.55;;;12.00;99.90;;;;;;5066874;28;20499;-73
2022/03/29 12:17:07;;;;;;;28.95;19.65;;;12.00;99.90;;;;;;5065926;28;20139;-73
2022/03/29 12:19:35;;;;;;;27.85;19.02;;;12.00;99.90;;;;;;5066887;28;20044;-74
2022/03/29 12:22:06;;;;;;;28.98;17.98;;;12.10;99.90;;;;;;5066703;28;20080;-74
2022/03/29 12:24:37;;;;;;;24.92;17.42;;;12.10;99.90;;;;;;5065745;28;20351;-74
2022/03/29 12:27:06;;;;;;;30.77;18.23;;;12.00;99.90;;;;;;5083069;28;20048;-73
2022/03/29 12:29:38;;;;;;;27.92;16.80;;;12.00;99.90;;;;;;5082412;28;20044;-73
2022/03/29 12:32:05;;;;;;;24.20;15.13;;;12.20;99.90;;;;;;5084436;28;20040;-74
2022/03/29 12:34:35;;;;;;;24.15;14.77;;;12.30;99.90;;;;;;5064470;28;20040;-74
2022/03/29 12:37:03;;;;;;;26.65;14.65;;;12.20;99.90;;;;;;5046203;28;20617;-74
2022/03/29 12:39:39;;;;;;;29.60;15.30;;;12.20;99.90;;;;;;5064001;28;20076;-71
2022/03/29 12:42:16;;;;;;;25.48;14.45;;;12.20;99.90;;;;;;5063281;28;20215;-71
2022/03/29 12:44:46;;;;;;;25.17;15.07;;;12.10;99.90;;;;;;5045088;28;20064;-71
2022/03/29 12:47:12;;;;;;;29.65;16.98;;;12.10;99.90;;;;;;5045976;28;20044;-71
2022/03/29 12:49:41;;;;;;;25.95;16.25;;;12.20;99.90;;;;;;5045484;28;20135;-72